Capitol Logistics 417


KSMF
Sacramento International Airport
Sacramento, California, US
KRFD
Chicago/Rockford International Airport
Rockford, Illinois, US

Activity Log

Date Flight Route Aircraft Duration
11/13/2019 CPX417 N0442F390 RVRCT2 MACUS Q122 ONL J94 FOD J82 DBQ V100 RFD B738 3h 27m
03/18/2019 CPX417 RVRCT2 MACUS Q122 FOD J82 DBQ RFD B752 3h 14m
02/03/2019 CPX217 SCTWN2 RALEY INSLO DTA DBL J60 IOW PLL B763 3h 27m

Route Details

Aircraft Information
Primary: Boeing 757-200SF
Backup: Boeing 737-800BCF
Route Data
Distance: 1511nm
Sched. Duration: 3h 25m
Avg. Duration: 3h 23m (-2m)
Times Flown: 3
Recm'd Route: SCTWN2 RALEY INSLO DTA DBL J60 IOW PLL
Planned Altitude: 39,000ft
Origin Wx: KSMF 222053Z 32005KT 10SM FEW250 19/04 A2996 RMK AO2 SLP143 T01890044 58015
Dest. Wx: KRFD 222054Z 20011KT 10SM BKN250 09/M01 A3012 RMK AO2 SLP204 T00891011 56024
Notes:

Financial History
Total Freight: 167,685lbs
Average Load: 55,895lbs/flt
Fuel Used: 85,129lbs
Avg. Fuel Used: 28,376lbs/flt
Fuel Expense: $92,791
Avg. Fuel Expense: $30,930
Avg. Fuel Cost: $1.09/lbs
Total Gross Income: $220,873
Pilot Pay: $607
Total Expenses: $24,010
Total Revenue: $101,681
Average Revenue: $73,624.46